Time;durP1;ratioP1;P1;durP2;ratioP2;P2;SDS_P1;SDS_P2;PMS_P1;PMS_P2;Temp;Humidity;BMP_temperature;BMP_pressure;BME280_temperature;BME280_humidity;BME280_pressure;Samples;Min_cycle;Max_cycle;Signal;HPM_P1;HPM_P2
2023/06/03 00:03:56;;;;;;;3.20;2.90;;;;;;;-147.53;100.00;57128.34;10004617;29;20058;-85
2023/06/03 00:08:58;;;;;;;1.83;0.80;;;;;;;-147.53;100.00;57128.34;10030835;29;20084;-85
2023/06/03 00:14:00;;;;;;;1.50;0.80;;;;;;;-147.53;100.00;57128.34;10010975;29;20106;-85
2023/06/03 00:19:02;;;;;;;0.95;0.80;;;;;;;-147.53;100.00;57128.34;10012177;29;20054;-84
2023/06/03 00:24:03;;;;;;;2.40;1.23;;;;;;;-147.53;100.00;57128.34;10019789;29;20041;-84
2023/06/03 00:29:05;;;;;;;0.35;0.35;;;;;;;-147.53;100.00;57128.34;10038174;29;20052;-84
2023/06/03 00:34:07;;;;;;;0.50;0.50;;;;;;;-147.53;100.00;57128.34;10023428;29;20910;-84
2023/06/03 00:39:09;;;;;;;0.80;0.70;;;;;;;-147.53;100.00;57128.34;10020077;29;20045;-84
2023/06/03 00:44:12;;;;;;;0.70;0.45;;;;;;;-147.53;100.00;57128.34;10001510;29;20061;-85
2023/06/03 00:49:14;;;;;;;1.02;0.68;;;;;;;-147.53;100.00;57128.34;10009188;29;20053;-85
2023/06/03 00:54:16;;;;;;;0.30;0.30;;;;;;;-147.53;100.00;57128.34;10010322;29;20606;-85
2023/06/03 00:59:18;;;;;;;0.43;0.38;;;;;;;-147.53;100.00;57128.34;10005814;29;20521;-85
2023/06/03 01:04:25;;;;;;;0.65;0.22;;;;;;;-147.53;100.00;57128.34;10006191;29;20058;-85
2023/06/03 01:10:15;;;;;;;0.50;0.35;;;;;;;-147.53;100.00;57128.34;10025796;29;20097;-85
2023/06/03 01:15:20;;;;;;;0.15;0.15;;;;;;;-147.53;100.00;57128.34;10011348;29;20140;-85
2023/06/03 01:20:26;;;;;;;0.30;0.30;;;;;;;-147.53;100.00;57128.34;9995791;29;20072;-85
2023/06/03 01:25:28;;;;;;;0.47;0.20;;;;;;;-147.53;100.00;57128.34;10021361;29;20541;-84
2023/06/03 01:30:30;;;;;;;0.15;0.13;;;;;;;-147.53;100.00;57128.34;10010307;29;20486;-85
2023/06/03 01:35:32;;;;;;;;;;;;;;;-147.53;100.00;57128.34;10000494;29;20467;-85
2023/06/03 01:40:35;;;;;;;0.30;0.30;;;;;;;-147.53;100.00;57128.34;10014705;29;19932;-85
2023/06/03 01:45:38;;;;;;;0.25;0.22;;;;;;;-147.53;100.00;57128.34;10004265;29;20050;-85
2023/06/03 01:50:43;;;;;;;0.32;0.20;;;;;;;-147.53;100.00;57128.34;10024641;29;20054;-84
2023/06/03 01:55:48;;;;;;;0.82;0.40;;;;;;;-147.53;100.00;57128.34;10017651;29;20090;-85
2023/06/03 02:00:51;;;;;;;;;;;;;;;-147.53;100.00;57128.34;10004959;29;20145;-85
2023/06/03 02:05:53;;;;;;;3.22;0.45;;;;;;;-147.53;100.00;57128.34;10002301;29;19932;-85
2023/06/03 02:10:55;;;;;;;1.08;0.30;;;;;;;-147.53;100.00;57128.34;10006467;29;20054;-86
2023/06/03 02:15:56;;;;;;;0.20;0.20;;;;;;;-147.53;100.00;57128.34;10001297;29;20733;-85
2023/06/03 02:20:58;;;;;;;1.02;0.73;;;;;;;-147.53;100.00;57128.34;10017380;29;20091;-85
2023/06/03 02:26:02;;;;;;;0.82;0.30;;;;;;;-147.53;100.00;57128.34;10006642;29;20069;-84
2023/06/03 02:31:03;;;;;;;0.50;0.30;;;;;;;-147.53;100.00;57128.34;9991158;29;20065;-85
2023/06/03 02:36:06;;;;;;;0.88;0.52;;;;;;;-147.53;100.00;57128.34;9996999;29;20045;-85
2023/06/03 02:41:08;;;;;;;0.52;0.28;;;;;;;-147.53;100.00;57128.34;9999189;29;22214;-84
2023/06/03 02:46:09;;;;;;;0.40;0.40;;;;;;;-147.53;100.00;57128.34;9999103;29;20546;-85
2023/06/03 02:51:11;;;;;;;1.00;0.70;;;;;;;-147.53;100.00;57128.34;10014895;29;20121;-85
2023/06/03 02:56:13;;;;;;;0.20;0.20;;;;;;;-147.53;100.00;57128.34;9998927;29;20061;-85
2023/06/03 03:01:14;;;;;;;2.88;0.60;;;;;;;-147.53;100.00;57128.34;10013894;29;20512;-85
2023/06/03 03:06:16;;;;;;;1.85;0.50;;;;;;;-147.53;100.00;57128.34;9998067;29;20056;-86
2023/06/03 03:11:18;;;;;;;0.43;0.30;;;;;;;-147.53;100.00;57128.34;9988698;29;20580;-85
2023/06/03 03:16:21;;;;;;;0.20;0.20;;;;;;;-147.53;100.00;57128.34;9996961;29;20145;-85
2023/06/03 03:21:24;;;;;;;0.43;0.43;;;;;;;-147.53;100.00;57128.34;9996723;29;20138;-85
2023/06/03 03:26:28;;;;;;;0.40;0.40;;;;;;;-147.53;100.00;57128.34;9997215;29;20049;-86
2023/06/03 03:31:30;;;;;;;0.98;0.40;;;;;;;-147.53;100.00;57128.34;10012950;29;20053;-85
2023/06/03 03:36:36;;;;;;;0.82;0.60;;;;;;;-147.53;100.00;57128.34;9995841;29;20060;-86
2023/06/03 03:41:43;;;;;;;0.32;0.32;;;;;;;-147.53;100.00;57128.34;9995204;29;20097;-85
2023/06/03 03:46:58;;;;;;;0.40;0.30;;;;;;;-147.53;100.00;57128.34;9995372;29;20058;-85
2023/06/03 03:52:04;;;;;;;0.50;0.50;;;;;;;-147.53;100.00;57128.34;10010734;29;20068;-85
2023/06/03 03:57:12;;;;;;;0.28;0.28;;;;;;;-147.53;100.00;57128.34;10000906;29;20077;-85
2023/06/03 04:02:20;;;;;;;1.27;0.83;;;;;;;-147.53;100.00;57128.34;9990917;29;20440;-86
2023/06/03 04:07:22;;;;;;;0.60;0.50;;;;;;;-147.53;100.00;57128.34;9991933;29;20114;-85
2023/06/03 04:12:29;;;;;;;0.45;0.25;;;;;;;-147.53;100.00;57128.34;9991542;29;20132;-85
2023/06/03 04:17:37;;;;;;;1.15;0.43;;;;;;;-147.53;100.00;57128.34;9992992;29;20050;-85
2023/06/03 04:22:39;;;;;;;2.45;0.63;;;;;;;-147.53;100.00;57128.34;10008581;29;20062;-85
2023/06/03 04:27:41;;;;;;;1.13;0.70;;;;;;;-147.53;100.00;57128.34;9991619;29;20050;-85
2023/06/03 04:32:45;;;;;;;0.73;0.30;;;;;;;-147.53;100.00;57128.34;9997053;29;20428;-85
2023/06/03 04:37:47;;;;;;;1.35;0.63;;;;;;;-147.53;100.00;57128.34;9984989;29;20696;-85
2023/06/03 04:42:53;;;;;;;1.00;0.50;;;;;;;-147.53;100.00;57128.34;10005963;29;20069;-85
2023/06/03 04:48:01;;;;;;;0.85;0.65;;;;;;;-147.53;100.00;57128.34;9998518;29;20079;-86
2023/06/03 04:53:05;;;;;;;3.30;0.52;;;;;;;-147.53;100.00;57128.34;9998176;29;20065;-85
2023/06/03 04:58:08;;;;;;;2.05;1.20;;;;;;;-147.53;100.00;57128.34;9998919;29;20313;-85
2023/06/03 05:03:10;;;;;;;1.10;0.68;;;;;;;-147.53;100.00;57128.34;10003524;29;20058;-84
2023/06/03 05:08:15;;;;;;;3.67;1.00;;;;;;;-147.53;100.00;57128.34;9999381;29;20072;-85
2023/06/03 05:13:17;;;;;;;2.60;1.08;;;;;;;-147.53;100.00;57128.34;10002648;29;20061;-85
2023/06/03 05:18:19;;;;;;;1.80;0.63;;;;;;;-147.53;100.00;57128.34;9996036;29;20049;-85
2023/06/03 05:23:22;;;;;;;0.98;0.60;;;;;;;-147.53;100.00;57128.34;9996294;29;20106;-84
2023/06/03 05:28:25;;;;;;;1.27;0.70;;;;;;;-147.53;100.00;57128.34;9984806;29;20061;-84
2023/06/03 05:33:32;;;;;;;1.25;0.70;;;;;;;-147.53;100.00;57128.34;9999306;29;20420;-84
2023/06/03 05:38:40;;;;;;;1.35;0.70;;;;;;;-147.53;100.00;57128.34;9996781;29;20058;-85
2023/06/03 05:43:44;;;;;;;5.50;0.57;;;;;;;-147.53;100.00;57128.34;9978982;29;20057;-85
2023/06/03 05:48:47;;;;;;;0.55;0.50;;;;;;;-147.53;100.00;57128.34;10000278;29;20050;-84
2023/06/03 05:53:50;;;;;;;0.80;0.60;;;;;;;-147.53;100.00;57128.34;10001812;29;20061;-84
2023/06/03 05:58:57;;;;;;;1.65;0.60;;;;;;;-147.53;100.00;57128.34;10030726;29;20435;-85
2023/06/03 06:04:01;;;;;;;1.45;0.98;;;;;;;-147.53;100.00;57128.34;10015781;29;20057;-85
2023/06/03 06:09:03;;;;;;;6.18;1.20;;;;;;;-147.53;100.00;57128.34;10042354;29;20053;-81
2023/06/03 06:14:05;;;;;;;2.05;0.55;;;;;;;-147.53;100.00;57128.34;10036130;29;20114;-82
2023/06/03 06:19:07;;;;;;;0.47;0.38;;;;;;;-147.53;100.00;57128.34;10035130;29;20073;-86
2023/06/03 06:24:10;;;;;;;0.98;0.50;;;;;;;-147.53;100.00;57128.34;10025370;29;20440;-84
2023/06/03 06:29:13;;;;;;;0.80;0.50;;;;;;;-147.53;100.00;57128.34;10012237;29;20065;-84
2023/06/03 06:34:17;;;;;;;2.05;0.85;;;;;;;-147.53;100.00;57128.34;10038750;29;20538;-84
2023/06/03 06:39:33;;;;;;;1.20;0.60;;;;;;;-147.53;100.00;57128.34;9991184;29;20061;-84
2023/06/03 06:44:50;;;;;;;2.17;0.52;;;;;;;-147.53;100.00;57128.34;10024061;29;20064;-84
2023/06/03 06:49:56;;;;;;;1.95;0.70;;;;;;;-147.53;100.00;57128.34;10023509;29;20053;-84
2023/06/03 06:55:01;;;;;;;1.38;0.52;;;;;;;-147.53;100.00;57128.34;10011843;29;20145;-84
2023/06/03 07:00:04;;;;;;;2.28;0.50;;;;;;;-147.53;100.00;57128.34;10021372;29;20096;-85
2023/06/03 07:05:06;;;;;;;2.55;0.70;;;;;;;-147.53;100.00;57128.34;10042567;29;20046;-84
2023/06/03 07:10:08;;;;;;;0.85;0.55;;;;;;;-147.53;100.00;57128.34;10025196;29;20049;-85
2023/06/03 07:15:10;;;;;;;1.30;0.60;;;;;;;-147.53;100.00;57128.34;10025663;29;20059;-85
2023/06/03 07:20:18;;;;;;;0.80;0.50;;;;;;;-147.53;100.00;57128.34;10019768;29;20631;-85
2023/06/03 07:25:33;;;;;;;1.08;0.47;;;;;;;-147.53;100.00;57128.34;10005688;29;20054;-85
2023/06/03 07:30:36;;;;;;;0.43;0.28;;;;;;;-147.53;100.00;57128.34;10009692;29;20073;-85
2023/06/03 07:35:38;;;;;;;0.73;0.60;;;;;;;-147.53;100.00;57128.34;10025734;29;20139;-85
2023/06/03 07:40:42;;;;;;;0.73;0.40;;;;;;;-147.53;100.00;57128.34;10021874;29;20461;-85
2023/06/03 07:45:44;;;;;;;0.82;0.60;;;;;;;-147.53;100.00;57128.34;10010555;29;20053;-85
2023/06/03 07:50:47;;;;;;;2.63;0.57;;;;;;;-147.53;100.00;57128.34;10023901;29;20546;-85
2023/06/03 07:55:50;;;;;;;1.85;0.47;;;;;;;-147.53;100.00;57128.34;10039989;29;20057;-85
2023/06/03 08:00:52;;;;;;;2.38;0.63;;;;;;;-147.53;100.00;57128.34;10040568;29;20141;-85
2023/06/03 08:05:53;;;;;;;0.70;0.40;;;;;;;-147.53;100.00;57128.34;10027376;29;20059;-84
2023/06/03 08:10:55;;;;;;;1.48;0.65;;;;;;;-147.53;100.00;57128.34;10035340;29;20118;-83
2023/06/03 08:15:58;;;;;;;3.33;0.70;;;;;;;-147.53;100.00;57128.34;10023916;29;20553;-83
2023/06/03 08:21:02;;;;;;;1.23;0.35;;;;;;;-147.53;100.00;57128.34;10008459;29;20065;-84
2023/06/03 08:26:04;;;;;;;4.28;0.70;;;;;;;-147.53;100.00;57128.34;10040132;29;20163;-83
2023/06/03 08:31:06;;;;;;;1.02;0.50;;;;;;;-147.53;100.00;57128.34;10037683;29;20102;-85
2023/06/03 08:36:08;;;;;;;1.13;0.43;;;;;;;-147.53;100.00;57128.34;10038324;29;20062;-84
2023/06/03 08:41:10;;;;;;;1.00;0.50;;;;;;;-147.53;100.00;57128.34;10035129;29;20148;-84
2023/06/03 08:46:30;;;;;;;0.47;0.47;;;;;;;-147.53;100.00;57128.34;10015427;29;20054;-84
2023/06/03 08:51:45;;;;;;;0.88;0.57;;;;;;;-147.53;100.00;57128.34;10018791;29;20050;-84
2023/06/03 08:56:58;;;;;;;0.82;0.50;;;;;;;-147.53;100.00;57128.34;10037224;29;20084;-86
2023/06/03 09:02:04;;;;;;;0.55;0.40;;;;;;;-147.53;100.00;57128.34;10036003;29;20117;-84
2023/06/03 09:07:07;;;;;;;2.03;0.57;;;;;;;-147.53;100.00;57128.34;10035865;29;20548;-84
2023/06/03 09:12:09;;;;;;;1.25;0.40;;;;;;;-147.53;100.00;57128.34;10037711;29;20049;-85
2023/06/03 09:17:20;;;;;;;4.53;0.65;;;;;;;-147.53;100.00;57128.34;10038456;29;20484;-85
2023/06/03 09:22:27;;;;;;;0.30;0.30;;;;;;;-147.53;100.00;57128.34;10024329;29;20085;-84
2023/06/03 09:27:29;;;;;;;1.00;0.55;;;;;;;-147.53;100.00;57128.34;10043216;29;20145;-84
2023/06/03 09:32:31;;;;;;;1.13;0.60;;;;;;;-147.53;100.00;57128.34;10037507;29;20080;-83
2023/06/03 09:37:33;;;;;;;0.85;0.50;;;;;;;-147.53;100.00;57128.34;10025173;29;20136;-84
2023/06/03 09:42:42;;;;;;;2.15;0.75;;;;;;;-147.53;100.00;57128.34;10042661;29;20049;-85
2023/06/03 09:47:44;;;;;;;1.25;0.40;;;;;;;-147.53;100.00;57128.34;10028203;29;20413;-83
2023/06/03 09:52:46;;;;;;;0.75;0.43;;;;;;;-147.53;100.00;57128.34;10044350;29;20060;-85
2023/06/03 09:58:02;;;;;;;1.17;0.40;;;;;;;-147.53;100.00;57128.34;10041750;29;20086;-84
2023/06/03 10:03:06;;;;;;;4.35;0.63;;;;;;;-147.53;100.00;57128.34;10050232;29;20060;-80
2023/06/03 10:08:08;;;;;;;0.68;0.50;;;;;;;-147.53;100.00;57128.34;10042348;29;20149;-81
2023/06/03 10:13:24;;;;;;;1.35;0.30;;;;;;;-147.53;100.00;57128.34;10040674;29;20066;-82
2023/06/03 10:18:36;;;;;;;0.40;0.35;;;;;;;-147.53;100.00;57128.34;10052820;29;20057;-81
2023/06/03 10:23:42;;;;;;;0.40;0.40;;;;;;;-147.53;100.00;57128.34;10057048;29;20045;-82
2023/06/03 10:28:48;;;;;;;3.05;0.57;;;;;;;-147.53;100.00;57128.34;10055706;29;20079;-82
2023/06/03 10:33:50;;;;;;;0.57;0.40;;;;;;;-147.53;100.00;57128.34;10054496;29;20053;-81
2023/06/03 10:38:52;;;;;;;0.85;0.50;;;;;;;-147.53;100.00;57128.34;10048330;29;20053;-79
2023/06/03 10:43:54;;;;;;;2.50;0.63;;;;;;;-147.53;100.00;57128.34;10052457;29;20168;-79
2023/06/03 10:48:56;;;;;;;0.93;0.50;;;;;;;-147.53;100.00;57128.34;10052769;29;20054;-80
2023/06/03 10:54:22;;;;;;;1.25;0.60;;;;;;;-147.53;100.00;57128.34;10037757;29;20073;-79
2023/06/03 10:59:27;;;;;;;1.00;0.43;;;;;;;-147.53;100.00;57128.34;10050403;29;20058;-79
2023/06/03 11:04:31;;;;;;;0.43;0.40;;;;;;;-147.53;100.00;57128.34;10037701;29;20064;-79
2023/06/03 11:09:34;;;;;;;1.60;0.55;;;;;;;-147.53;100.00;57128.34;10031675;29;20072;-79
2023/06/03 11:14:48;;;;;;;1.02;0.45;;;;;;;-147.53;100.00;57128.34;10053172;29;20037;-80
2023/06/03 11:19:51;;;;;;;1.45;0.63;;;;;;;-147.53;100.00;57128.34;10053083;29;20114;-80
2023/06/03 11:24:54;;;;;;;1.23;0.40;;;;;;;-147.53;100.00;57128.34;10045860;29;20046;-80
2023/06/03 11:29:58;;;;;;;0.88;0.30;;;;;;;-147.53;100.00;57128.34;10046382;29;20069;-82
2023/06/03 11:35:03;;;;;;;0.90;0.75;;;;;;;-147.53;100.00;57128.34;10023159;29;20041;-79
2023/06/03 11:40:06;;;;;;;1.65;0.52;;;;;;;-147.53;100.00;57128.34;10017481;29;20057;-79
2023/06/03 11:45:27;;;;;;;1.45;0.40;;;;;;;-147.53;100.00;57128.34;10036496;29;20102;-81
2023/06/03 11:50:31;;;;;;;2.13;0.75;;;;;;;-147.53;100.00;57128.34;10021239;29;20054;-78
2023/06/03 11:55:34;;;;;;;1.05;0.70;;;;;;;-147.53;100.00;57128.34;10019331;29;20140;-78
2023/06/03 12:00:37;;;;;;;0.43;0.43;;;;;;;-147.53;100.00;57128.34;10031587;29;20129;-79
2023/06/03 12:05:59;;;;;;;0.32;0.28;;;;;;;-147.53;100.00;57128.34;10021908;29;20050;-80
2023/06/03 12:11:01;;;;;;;1.42;0.60;;;;;;;-147.53;100.00;57128.34;10047346;29;20064;-81
2023/06/03 12:16:03;;;;;;;0.32;0.32;;;;;;;-147.53;100.00;57128.34;10047177;29;20543;-82
2023/06/03 12:21:19;;;;;;;1.80;0.73;;;;;;;-147.53;100.00;57128.34;10024131;29;20674;-79
2023/06/03 12:26:21;;;;;;;1.27;0.45;;;;;;;-147.53;100.00;57128.34;10023103;29;20089;-78
2023/06/03 12:31:23;;;;;;;0.63;0.55;;;;;;;-147.53;100.00;57128.34;10035454;29;20145;-79
2023/06/03 12:36:44;;;;;;;0.50;0.38;;;;;;;-147.53;100.00;57128.34;10032879;29;20065;-79
2023/06/03 12:41:52;;;;;;;1.98;0.65;;;;;;;-147.53;100.00;57128.34;10037664;29;20085;-79
2023/06/03 12:47:02;;;;;;;0.95;0.47;;;;;;;-147.53;100.00;57128.34;10026272;29;20836;-81
2023/06/03 12:52:13;;;;;;;3.13;0.68;;;;;;;-147.53;100.00;57128.34;10034316;29;20057;-81
2023/06/03 12:57:22;;;;;;;0.55;0.50;;;;;;;-147.53;100.00;57128.34;10016714;29;20054;-83
2023/06/03 13:02:24;;;;;;;2.95;0.85;;;;;;;-147.53;100.00;57128.34;10035481;29;20122;-81
2023/06/03 13:07:26;;;;;;;1.73;0.68;;;;;;;-147.53;100.00;57128.34;10037380;29;20054;-83
2023/06/03 13:18:16;;;;;;;1.40;0.85;;;;;;;-147.53;100.00;57128.34;10972241;23;20138;-86
2023/06/03 13:23:21;;;;;;;1.40;0.55;;;;;;;-147.53;100.00;57128.34;10020384;29;20099;-86
2023/06/03 13:28:43;;;;;;;0.38;0.30;;;;;;;-147.53;100.00;57128.34;10024857;29;20488;-82
2023/06/03 13:33:45;;;;;;;0.90;0.50;;;;;;;-147.53;100.00;57128.34;10054112;29;20072;-85
2023/06/03 13:38:49;;;;;;;0.82;0.40;;;;;;;-147.53;100.00;57128.34;10017458;29;20585;-76
2023/06/03 13:43:50;;;;;;;1.33;0.80;;;;;;;-147.53;100.00;57128.34;10021008;29;20144;-77
2023/06/03 13:48:52;;;;;;;0.73;0.40;;;;;;;-147.53;100.00;57128.34;10043334;29;20081;-77
2023/06/03 13:53:54;;;;;;;0.80;0.60;;;;;;;-147.53;100.00;57128.34;10038563;29;20619;-77
2023/06/03 13:58:55;;;;;;;5.43;0.73;;;;;;;-147.53;100.00;57128.34;10048696;29;20053;-77
2023/06/03 14:03:57;;;;;;;1.45;0.90;;;;;;;-147.53;100.00;57128.34;10032675;29;20054;-77
2023/06/03 14:08:59;;;;;;;3.78;0.75;;;;;;;-147.53;100.00;57128.34;10027752;29;20164;-77
2023/06/03 14:14:01;;;;;;;2.08;0.90;;;;;;;-147.53;100.00;57128.34;10042529;29;20068;-77
2023/06/03 14:19:02;;;;;;;1.67;0.60;;;;;;;-147.53;100.00;57128.34;10044977;29;20055;-77
2023/06/03 14:24:04;;;;;;;2.40;0.63;;;;;;;-147.53;100.00;57128.34;10049753;29;20054;-77
2023/06/03 14:29:10;;;;;;;1.95;0.82;;;;;;;-147.53;100.00;57128.34;10025365;29;20058;-77
2023/06/03 14:34:11;;;;;;;2.15;0.80;;;;;;;-147.53;100.00;57128.34;10032029;29;20061;-76
2023/06/03 14:39:15;;;;;;;0.77;0.55;;;;;;;-147.53;100.00;57128.34;10040433;29;20113;-76
2023/06/03 14:44:16;;;;;;;0.63;0.47;;;;;;;-147.53;100.00;57128.34;10029765;29;20413;-77
2023/06/03 14:49:19;;;;;;;0.68;0.50;;;;;;;-147.53;100.00;57128.34;10043147;29;20049;-76
2023/06/03 14:54:21;;;;;;;3.80;0.63;;;;;;;-147.53;100.00;57128.34;10034868;29;20061;-76
2023/06/03 14:59:22;;;;;;;6.85;1.08;;;;;;;-147.53;100.00;57128.34;10045701;29;20584;-77
2023/06/03 15:04:24;;;;;;;1.17;0.52;;;;;;;-147.53;100.00;57128.34;10029701;29;20045;-78
2023/06/03 15:09:26;;;;;;;0.80;0.35;;;;;;;-147.53;100.00;57128.34;10050198;29;20685;-80
2023/06/03 15:14:28;;;;;;;0.45;0.40;;;;;;;-147.53;100.00;57128.34;10049018;29;20083;-83
2023/06/03 15:19:30;;;;;;;0.80;0.47;;;;;;;-147.53;100.00;57128.34;10026249;29;20057;-84
2023/06/03 15:24:35;;;;;;;1.30;0.40;;;;;;;-147.53;100.00;57128.34;10024984;29;20420;-83
2023/06/03 15:29:36;;;;;;;0.65;0.28;;;;;;;-147.53;100.00;57128.34;10012545;29;20065;-85
2023/06/03 15:34:38;;;;;;;0.75;0.43;;;;;;;-147.53;100.00;57128.34;10020483;29;20464;-84
2023/06/03 15:39:39;;;;;;;0.80;0.40;;;;;;;-147.53;100.00;57128.34;10039815;29;20493;-84
2023/06/03 15:44:41;;;;;;;0.40;0.40;;;;;;;-147.53;100.00;57128.34;10036371;29;20081;-84
2023/06/03 15:49:43;;;;;;;1.45;0.60;;;;;;;-147.53;100.00;57128.34;10024519;29;20053;-83
2023/06/03 15:54:44;;;;;;;0.70;0.47;;;;;;;-147.53;100.00;57128.34;10041408;29;20076;-83
2023/06/03 15:59:46;;;;;;;2.05;0.60;;;;;;;-147.53;100.00;57128.34;10040105;29;20186;-84
2023/06/03 16:04:48;;;;;;;1.20;0.47;;;;;;;-147.53;100.00;57128.34;10036755;29;20076;-84
2023/06/03 16:09:50;;;;;;;3.90;0.93;;;;;;;-147.53;100.00;57128.34;10011671;29;20132;-86
2023/06/03 16:14:51;;;;;;;1.25;0.75;;;;;;;-147.53;100.00;57128.34;10042684;29;20069;-85
2023/06/03 16:19:53;;;;;;;2.25;0.57;;;;;;;-147.53;100.00;57128.34;10038264;29;20074;-85
2023/06/03 16:24:55;;;;;;;2.10;0.80;;;;;;;-147.53;100.00;57128.34;10044552;29;20058;-84
2023/06/03 16:29:57;;;;;;;2.85;0.55;;;;;;;-147.53;100.00;57128.34;10034288;29;20074;-84
2023/06/03 16:34:59;;;;;;;0.85;0.50;;;;;;;-147.53;100.00;57128.34;10021307;29;20046;-84
2023/06/03 16:40:01;;;;;;;2.40;0.73;;;;;;;-147.53;100.00;57128.34;10037072;29;20066;-83
2023/06/03 16:45:02;;;;;;;0.52;0.40;;;;;;;-147.53;100.00;57128.34;10038349;29;20082;-83
2023/06/03 16:50:06;;;;;;;2.28;0.65;;;;;;;-147.53;100.00;57128.34;10023189;29;20054;-83
2023/06/03 16:55:08;;;;;;;2.25;0.55;;;;;;;-147.53;100.00;57128.34;10038513;29;20057;-85
2023/06/03 17:00:10;;;;;;;1.95;0.52;;;;;;;-147.53;100.00;57128.34;10034679;29;20431;-84
2023/06/03 17:05:11;;;;;;;0.88;0.50;;;;;;;-147.53;100.00;57128.34;10037692;29;20050;-83
2023/06/03 17:10:15;;;;;;;1.85;0.60;;;;;;;-147.53;100.00;57128.34;10032897;29;20089;-85
2023/06/03 17:15:17;;;;;;;2.03;0.45;;;;;;;-147.53;100.00;57128.34;10019343;29;20065;-83
2023/06/03 17:20:21;;;;;;;1.42;0.50;;;;;;;-147.53;100.00;57128.34;10013064;29;20124;-83
2023/06/03 17:25:25;;;;;;;2.65;0.80;;;;;;;-147.53;100.00;57128.34;10030994;29;22040;-82
2023/06/03 17:30:27;;;;;;;0.52;0.40;;;;;;;-147.53;100.00;57128.34;10028614;29;20061;-84
2023/06/03 17:35:29;;;;;;;1.38;0.63;;;;;;;-147.53;100.00;57128.34;10025557;29;20093;-83
2023/06/03 17:40:30;;;;;;;2.15;0.90;;;;;;;-147.53;100.00;57128.34;10044125;29;20136;-85
2023/06/03 17:45:32;;;;;;;0.93;0.50;;;;;;;-147.53;100.00;57128.34;10044366;29;20121;-84
2023/06/03 17:50:34;;;;;;;0.57;0.35;;;;;;;-147.53;100.00;57128.34;10005342;29;20081;-85
2023/06/03 17:55:35;;;;;;;0.30;0.30;;;;;;;-147.53;100.00;57128.34;10045880;29;20714;-82
2023/06/03 18:00:37;;;;;;;1.23;0.65;;;;;;;-147.53;100.00;57128.34;10042475;29;20128;-84
2023/06/03 18:05:42;;;;;;;1.00;0.57;;;;;;;-147.53;100.00;57128.34;10039247;29;20065;-83
2023/06/03 18:10:53;;;;;;;0.85;0.43;;;;;;;-147.53;100.00;57128.34;10025556;29;20845;-84
2023/06/03 18:15:55;;;;;;;1.08;0.57;;;;;;;-147.53;100.00;57128.34;10047462;29;20431;-86
2023/06/03 18:20:57;;;;;;;4.57;0.82;;;;;;;-147.53;100.00;57128.34;10043054;29;20076;-85
2023/06/03 18:25:59;;;;;;;0.70;0.47;;;;;;;-147.53;100.00;57128.34;10043863;29;20187;-82
2023/06/03 18:31:01;;;;;;;1.02;0.60;;;;;;;-147.53;100.00;57128.34;10019236;29;20105;-84
2023/06/03 18:36:02;;;;;;;2.08;0.80;;;;;;;-147.53;100.00;57128.34;10026926;29;20094;-84
2023/06/03 18:41:04;;;;;;;0.73;0.50;;;;;;;-147.53;100.00;57128.34;10037445;29;20065;-83
2023/06/03 18:46:06;;;;;;;4.80;0.70;;;;;;;-147.53;100.00;57128.34;10043128;29;20042;-84
2023/06/03 18:51:08;;;;;;;0.60;0.47;;;;;;;-147.53;100.00;57128.34;10026315;29;20049;-84
2023/06/03 18:56:10;;;;;;;1.08;0.50;;;;;;;-147.53;100.00;57128.34;10040482;29;20423;-84
2023/06/03 19:01:12;;;;;;;1.42;0.57;;;;;;;-147.53;100.00;57128.34;10041968;29;20061;-84
2023/06/03 19:06:15;;;;;;;0.60;0.40;;;;;;;-147.53;100.00;57128.34;10022928;29;20053;-84
2023/06/03 19:11:16;;;;;;;0.95;0.50;;;;;;;-147.53;100.00;57128.34;10018053;29;20102;-84
2023/06/03 19:16:18;;;;;;;1.15;0.50;;;;;;;-147.53;100.00;57128.34;10045047;29;20057;-84
2023/06/03 19:21:20;;;;;;;0.70;0.50;;;;;;;-147.53;100.00;57128.34;10024300;29;20088;-83
2023/06/03 19:26:23;;;;;;;0.60;0.47;;;;;;;-147.53;100.00;57128.34;10039426;29;20058;-84
2023/06/03 19:31:29;;;;;;;1.33;0.55;;;;;;;-147.53;100.00;57128.34;10015136;29;20464;-85
2023/06/03 19:36:31;;;;;;;0.75;0.52;;;;;;;-147.53;100.00;57128.34;10022325;29;20453;-84
2023/06/03 19:41:35;;;;;;;1.05;0.45;;;;;;;-147.53;100.00;57128.34;10008258;29;20053;-83
2023/06/03 19:46:36;;;;;;;1.42;0.38;;;;;;;-147.53;100.00;57128.34;10027302;29;20053;-84
2023/06/03 19:51:38;;;;;;;0.35;0.35;;;;;;;-147.53;100.00;57128.34;10020226;29;20517;-85
2023/06/03 19:56:40;;;;;;;1.17;0.57;;;;;;;-147.53;100.00;57128.34;10043605;29;20088;-84
2023/06/03 20:01:44;;;;;;;1.00;0.40;;;;;;;-147.53;100.00;57128.34;10035311;29;20141;-84
2023/06/03 20:06:46;;;;;;;0.73;0.38;;;;;;;-147.53;100.00;57128.34;10022762;29;20555;-85
2023/06/03 20:11:49;;;;;;;2.80;1.00;;;;;;;-147.53;100.00;57128.34;10034185;29;20080;-83
2023/06/03 20:16:53;;;;;;;2.55;0.60;;;;;;;-147.53;100.00;57128.34;10003638;29;20531;-84
2023/06/03 20:21:56;;;;;;;0.95;0.40;;;;;;;-147.53;100.00;57128.34;10042682;29;20057;-85
2023/06/03 20:26:58;;;;;;;0.85;0.50;;;;;;;-147.53;100.00;57128.34;10040340;29;20482;-85
2023/06/03 20:31:59;;;;;;;0.77;0.50;;;;;;;-147.53;100.00;57128.34;10026511;29;20624;-84
2023/06/03 20:37:01;;;;;;;0.35;0.35;;;;;;;-147.53;100.00;57128.34;10041672;29;20053;-84
2023/06/03 20:42:03;;;;;;;1.63;0.70;;;;;;;-147.53;100.00;57128.34;10035122;29;20064;-85
2023/06/03 20:47:14;;;;;;;0.30;0.30;;;;;;;-147.53;100.00;57128.34;10025345;29;20058;-85
2023/06/03 20:52:16;;;;;;;0.60;0.32;;;;;;;-147.53;100.00;57128.34;10005608;29;20500;-85
2023/06/03 20:57:18;;;;;;;1.15;0.63;;;;;;;-147.53;100.00;57128.34;10021029;29;20058;-85
2023/06/03 21:02:20;;;;;;;2.42;0.63;;;;;;;-147.53;100.00;57128.34;10022698;29;20068;-84
2023/06/03 21:07:22;;;;;;;3.45;0.60;;;;;;;-147.53;100.00;57128.34;10015855;29;20097;-84
2023/06/03 21:12:23;;;;;;;1.42;0.40;;;;;;;-147.53;100.00;57128.34;10027267;29;20054;-85
2023/06/03 21:17:25;;;;;;;0.80;0.60;;;;;;;-147.53;100.00;57128.34;10039886;29;20058;-86
2023/06/03 21:22:27;;;;;;;1.85;0.52;;;;;;;-147.53;100.00;57128.34;10027521;29;20057;-85
2023/06/03 21:27:32;;;;;;;0.45;0.45;;;;;;;-147.53;100.00;57128.34;10012224;29;20086;-84
2023/06/03 21:32:33;;;;;;;3.20;0.85;;;;;;;-147.53;100.00;57128.34;10048295;29;20690;-85
2023/06/03 21:37:35;;;;;;;1.60;0.70;;;;;;;-147.53;100.00;57128.34;10048430;29;20061;-84
2023/06/03 21:42:37;;;;;;;2.50;0.70;;;;;;;-147.53;100.00;57128.34;10045937;29;20128;-85
2023/06/03 21:47:39;;;;;;;8.27;0.85;;;;;;;-147.53;100.00;57128.34;10043805;29;20595;-85
2023/06/03 21:52:40;;;;;;;0.57;0.45;;;;;;;-147.53;100.00;57128.34;10046765;29;20057;-86
2023/06/03 21:57:42;;;;;;;0.95;0.50;;;;;;;-147.53;100.00;57128.34;10031128;29;20045;-85
2023/06/03 22:02:44;;;;;;;2.97;0.88;;;;;;;-147.53;100.00;57128.34;10040110;29;20057;-84
2023/06/03 22:07:45;;;;;;;3.65;0.75;;;;;;;-147.53;100.00;57128.34;10040285;29;20552;-85
2023/06/03 22:12:47;;;;;;;3.28;1.05;;;;;;;-147.53;100.00;57128.34;10030147;29;20137;-84
2023/06/03 22:17:49;;;;;;;1.42;0.65;;;;;;;-147.53;100.00;57128.34;10046461;29;20063;-85
2023/06/03 22:22:51;;;;;;;1.52;0.73;;;;;;;-147.53;100.00;57128.34;10045704;29;20545;-85
2023/06/03 22:28:06;;;;;;;1.27;0.63;;;;;;;-147.53;100.00;57128.34;10040017;29;20440;-86
2023/06/03 22:33:09;;;;;;;5.07;0.98;;;;;;;-147.53;100.00;57128.34;10020373;29;20102;-85
2023/06/03 22:38:10;;;;;;;1.05;0.60;;;;;;;-147.53;100.00;57128.34;10049059;29;20061;-85
2023/06/03 22:43:12;;;;;;;3.75;0.82;;;;;;;-147.53;100.00;57128.34;10028878;29;20556;-84
2023/06/03 22:48:14;;;;;;;1.60;0.55;;;;;;;-147.53;100.00;57128.34;10045590;29;20149;-85
2023/06/03 22:53:16;;;;;;;1.25;0.80;;;;;;;-147.53;100.00;57128.34;10038327;29;20061;-84